Time;durP1;ratioP1;P1;durP2;ratioP2;P2;SDS_P1;SDS_P2;PMS_P1;PMS_P2;Temp;Humidity;BMP_temperature;BMP_pressure;BME280_temperature;BME280_humidity;BME280_pressure;Samples;Min_cycle;Max_cycle;Signal;HPM_P1;HPM_P2
2022/04/20 00:02:00;;;;;;;33.10;11.10;;;;;;;-1.66;91.42;99302.76;103548;1299;23874;-25
2022/04/20 00:04:29;;;;;;;30.50;13.50;;;;;;;-1.58;90.59;99297.09;103568;1300;23841;-28
2022/04/20 00:06:58;;;;;;;25.80;11.70;;;;;;;-1.58;90.15;99297.77;103581;1300;24238;-30
2022/04/20 00:09:27;;;;;;;25.80;11.40;;;;;;;-1.55;89.74;99297.48;103604;1300;22894;-29
2022/04/20 00:11:56;;;;;;;28.10;13.50;;;;;;;-1.45;90.12;99295.80;103539;1300;24978;-25
2022/04/20 00:14:25;;;;;;;26.30;13.50;;;;;;;-1.45;90.51;99293.02;103604;1300;25016;-27
2022/04/20 00:16:54;;;;;;;39.60;17.30;;;;;;;-1.46;91.76;99291.50;103432;1302;24332;-25
2022/04/20 00:19:23;;;;;;;33.60;17.50;;;;;;;-1.46;91.21;99297.47;103590;1299;25055;-29
2022/04/20 00:21:52;;;;;;;37.60;16.00;;;;;;;-1.47;91.38;99294.73;103534;1300;22486;-29
2022/04/20 00:24:22;;;;;;;27.00;13.10;;;;;;;-1.50;90.19;99297.25;103499;1302;24328;-27
2022/04/20 00:26:50;;;;;;;22.50;11.20;;;;;;;-1.55;89.56;99293.31;103574;1300;22493;-25
2022/04/20 00:29:19;;;;;;;22.80;11.30;;;;;;;-1.63;91.06;99293.38;103554;1300;25044;-27
2022/04/20 00:31:48;;;;;;;22.90;10.90;;;;;;;-1.64;90.92;99295.41;103582;1300;24265;-29
2022/04/20 00:34:17;;;;;;;20.60;9.20;;;;;;;-1.63;92.49;99297.09;103587;1300;22511;-30
2022/04/20 00:36:50;;;;;;;19.20;9.90;;;;;;;-1.61;92.35;99298.88;103567;1300;22632;-30
2022/04/20 00:39:19;;;;;;;36.10;13.90;;;;;;;-1.59;93.52;99298.92;103549;1300;23598;-28
2022/04/20 00:41:48;;;;;;;24.90;10.60;;;;;;;-1.67;92.51;99293.91;103618;1300;24305;-30
2022/04/20 00:44:17;;;;;;;21.90;10.70;;;;;;;-1.72;93.87;99292.35;103694;1300;25056;-27
2022/04/20 00:46:47;;;;;;;15.90;8.80;;;;;;;-1.73;92.95;99286.27;103535;1300;25138;-25
2022/04/20 00:49:16;;;;;;;19.10;9.40;;;;;;;-1.75;91.78;99283.49;103560;1300;22659;-28
2022/04/20 00:51:50;;;;;;;17.40;9.40;;;;;;;-1.81;92.14;99279.20;103580;1300;22516;-27
2022/04/20 00:54:19;;;;;;;19.60;10.80;;;;;;;-1.80;92.93;99272.86;103578;1300;24195;-30
2022/04/20 00:56:49;;;;;;;23.70;10.70;;;;;;;-1.78;90.94;99266.89;103503;1300;25034;-25
2022/04/20 00:59:20;;;;;;;17.20;9.30;;;;;;;-1.80;90.04;99263.35;103520;1300;23801;-30
2022/04/20 01:01:50;;;;;;;13.50;8.50;;;;;;;-1.91;89.84;99255.90;103578;1300;25016;-30
2022/04/20 01:04:19;;;;;;;15.80;7.40;;;;;;;-1.99;90.25;99259.39;103557;1302;24240;-28
2022/04/20 01:06:50;;;;;;;12.80;6.30;;;;;;;-1.99;92.26;99259.94;103565;1300;23541;-28
2022/04/20 01:09:19;;;;;;;25.50;8.60;;;;;;;-1.88;92.93;99268.86;103596;1302;26145;-29
2022/04/20 01:11:50;;;;;;;9.90;5.20;;;;;;;-1.81;93.21;99268.35;103529;1299;22629;-28
2022/04/20 01:14:20;;;;;;;13.90;7.20;;;;;;;-1.64;94.58;99267.35;103548;1300;23879;-26
2022/04/20 01:16:49;;;;;;;18.80;9.30;;;;;;;-1.54;93.55;99268.99;103530;1300;22619;-28
2022/04/20 01:19:19;;;;;;;13.80;8.50;;;;;;;-1.48;94.18;99268.27;103530;1300;22732;-30
2022/04/20 01:21:48;;;;;;;18.20;9.60;;;;;;;-1.34;95.50;99271.41;103552;1300;25007;-25
2022/04/20 01:24:17;;;;;;;30.90;10.00;;;;;;;-1.16;95.40;99273.77;103518;1300;22503;-28
2022/04/20 01:26:46;;;;;;;19.60;10.00;;;;;;;-1.02;93.23;99265.80;103544;1300;23823;-28
2022/04/20 01:29:15;;;;;;;17.10;8.60;;;;;;;-1.07;91.78;99263.19;103433;1300;22515;-28
2022/04/20 01:31:44;;;;;;;22.20;12.50;;;;;;;-1.07;91.88;99264.64;103536;1300;23888;-30
2022/04/20 01:34:13;;;;;;;22.70;11.80;;;;;;;-0.99;91.52;99263.29;103588;1300;24974;-27
2022/04/20 01:36:42;;;;;;;28.50;12.80;;;;;;;-0.99;91.01;99263.76;103588;1300;24004;-27
2022/04/20 01:39:11;;;;;;;21.20;10.90;;;;;;;-0.96;91.29;99265.50;103577;1300;23761;-29
2022/04/20 01:41:40;;;;;;;15.80;9.20;;;;;;;-0.98;91.73;99264.98;103553;1300;24996;-26
2022/04/20 01:44:09;;;;;;;26.20;11.40;;;;;;;-0.89;92.58;99263.88;103539;1300;23589;-26
2022/04/20 01:46:39;;;;;;;18.60;10.00;;;;;;;-0.78;92.99;99261.66;103608;1300;22505;-25
2022/04/20 01:49:08;;;;;;;24.80;9.60;;;;;;;-0.69;92.81;99261.65;103542;1300;23887;-26
2022/04/20 01:54:09;;;;;;;14.60;8.00;;;;;;;-0.59;91.99;99258.40;103567;1300;23911;-25
2022/04/20 01:56:38;;;;;;;13.70;8.30;;;;;;;-0.53;91.37;99257.66;103583;1300;22511;-28
2022/04/20 01:59:09;;;;;;;17.50;8.90;;;;;;;-0.48;91.56;99256.90;103557;1300;23045;-27
2022/04/20 02:04:10;;;;;;;37.20;13.10;;;;;;;-0.34;90.86;99246.39;103575;1300;23882;-30
2022/04/20 02:06:39;;;;;;;25.00;11.80;;;;;;;-0.34;90.50;99242.14;103528;1300;24308;-29
2022/04/20 02:09:08;;;;;;;20.90;10.30;;;;;;;-0.29;90.16;99234.00;103515;1300;23658;-30
2022/04/20 02:11:38;;;;;;;27.60;13.50;;;;;;;-0.27;90.08;99234.04;103678;1301;22518;-26
2022/04/20 02:14:07;;;;;;;24.80;12.60;;;;;;;-0.24;89.84;99233.95;103562;1300;22754;-30
2022/04/20 02:16:36;;;;;;;18.30;10.60;;;;;;;-0.27;89.79;99237.52;103509;1300;22512;-25
2022/04/20 02:19:05;;;;;;;19.30;10.00;;;;;;;-0.32;89.85;99246.27;103529;1300;23739;-25
2022/04/20 02:21:34;;;;;;;21.30;12.10;;;;;;;-0.31;90.07;99252.83;103585;1300;23879;-29
2022/04/20 02:24:04;;;;;;;25.20;9.30;;;;;;;-0.28;89.88;99251.86;103532;1300;24199;-29
2022/04/20 02:26:33;;;;;;;20.70;10.10;;;;;;;-0.27;90.21;99246.65;103556;1300;22669;-25
2022/04/20 02:29:02;;;;;;;23.20;10.20;;;;;;;-0.25;90.12;99248.10;103604;1300;22514;-27
2022/04/20 02:31:31;;;;;;;20.30;10.00;;;;;;;-0.21;90.22;99251.80;103575;1300;24875;-29
2022/04/20 02:34:00;;;;;;;21.10;11.60;;;;;;;-0.19;90.36;99249.70;103559;1300;23927;-25
2022/04/20 02:36:29;;;;;;;20.40;12.10;;;;;;;-0.06;90.40;99249.95;103590;1300;26180;-25
2022/04/20 02:38:58;;;;;;;20.00;11.10;;;;;;;0.06;89.39;99244.90;103500;1302;24221;-26
2022/04/20 02:41:27;;;;;;;20.50;10.90;;;;;;;0.06;89.12;99243.50;103563;1300;23600;-29
2022/04/20 02:43:56;;;;;;;21.40;10.80;;;;;;;-0.05;89.75;99241.42;103575;1300;24240;-28
2022/04/20 02:46:26;;;;;;;20.60;9.90;;;;;;;-0.07;89.84;99243.38;103604;1300;24273;-29
2022/04/20 02:48:54;;;;;;;17.20;10.20;;;;;;;-0.09;89.78;99240.77;103619;1300;22748;-31
2022/04/20 02:51:23;;;;;;;22.30;10.70;;;;;;;-0.13;90.39;99242.30;103558;1300;24319;-25
2022/04/20 02:53:52;;;;;;;24.10;9.40;;;;;;;-0.00;90.14;99239.29;103581;1300;23607;-29
2022/04/20 02:56:21;;;;;;;19.70;11.50;;;;;;;0.01;90.31;99237.73;103526;1300;22503;-25
2022/04/20 02:58:50;;;;;;;29.90;11.00;;;;;;;0.17;89.88;99237.38;103556;1300;23801;-28
2022/04/20 03:01:19;;;;;;;17.30;9.20;;;;;;;0.15;89.85;99239.19;103600;1300;22506;-28
2022/04/20 03:03:48;;;;;;;14.10;7.20;;;;;;;0.17;90.66;99236.53;103621;1301;24213;-26
2022/04/20 03:06:18;;;;;;;18.50;9.40;;;;;;;0.29;90.75;99229.31;103570;1300;22900;-28
2022/04/20 03:08:47;;;;;;;17.20;7.10;;;;;;;0.38;90.76;99230.45;103564;1300;24214;-25
2022/04/20 03:11:16;;;;;;;20.10;9.10;;;;;;;0.44;90.63;99226.61;103585;1300;22499;-26
2022/04/20 03:13:46;;;;;;;13.70;7.70;;;;;;;0.52;90.26;99227.96;103592;1300;22496;-26
2022/04/20 03:16:15;;;;;;;22.10;9.50;;;;;;;0.63;89.97;99219.42;103505;1300;24286;-26
2022/04/20 03:18:44;;;;;;;12.60;6.80;;;;;;;0.70;89.61;99217.17;103534;1300;22518;-24
2022/04/20 03:21:14;;;;;;;17.00;10.30;;;;;;;0.68;89.59;99214.38;103574;1300;25174;-29
2022/04/20 03:23:43;;;;;;;14.50;5.90;;;;;;;0.72;89.57;99212.27;103550;1300;22505;-25
2022/04/20 03:26:12;;;;;;;8.50;5.30;;;;;;;0.93;89.09;99205.30;103591;1300;23614;-29
2022/04/20 03:28:41;;;;;;;15.00;8.30;;;;;;;0.99;88.26;99206.69;103557;1300;22872;-27
2022/04/20 03:31:10;;;;;;;14.90;9.30;;;;;;;1.17;87.46;99210.33;103458;1301;24217;-31
2022/04/20 03:33:38;;;;;;;22.30;10.60;;;;;;;0.97;88.22;99212.67;103638;1300;25164;-29
2022/04/20 03:36:07;;;;;;;29.00;11.30;;;;;;;0.99;88.28;99211.28;103578;1300;24216;-28
2022/04/20 03:38:36;;;;;;;13.00;6.30;;;;;;;1.01;88.13;99210.16;103527;1302;24401;-27
2022/04/20 03:41:05;;;;;;;19.20;11.00;;;;;;;0.91;88.63;99212.63;103592;1301;22513;-29
2022/04/20 03:43:34;;;;;;;19.10;9.60;;;;;;;0.94;88.68;99207.80;103441;1302;22492;-30
2022/04/20 03:46:05;;;;;;;26.80;11.80;;;;;;;0.97;88.91;99206.86;103545;1300;24994;-26
2022/04/20 03:48:34;;;;;;;26.00;14.40;;;;;;;0.82;89.48;99208.40;103553;1300;24216;-29
2022/04/20 03:51:03;;;;;;;15.80;8.30;;;;;;;0.85;89.37;99211.65;103512;1300;22530;-25
2022/04/20 03:53:32;;;;;;;24.10;12.70;;;;;;;0.89;89.42;99204.91;103564;1300;22544;-29
2022/04/20 03:56:01;;;;;;;25.60;13.00;;;;;;;0.92;89.06;99209.53;103585;1301;24977;-29
2022/04/20 03:58:30;;;;;;;23.20;12.00;;;;;;;0.98;88.96;99208.30;103587;1300;23538;-27
2022/04/20 04:00:59;;;;;;;20.60;8.70;;;;;;;0.95;89.10;99204.66;103610;1302;24218;-27
2022/04/20 04:03:28;;;;;;;16.70;8.00;;;;;;;0.95;89.21;99206.11;103567;1300;22501;-29
2022/04/20 04:05:57;;;;;;;15.40;8.70;;;;;;;1.02;89.25;99209.86;103553;1302;24952;-28
2022/04/20 04:08:26;;;;;;;19.20;10.40;;;;;;;1.05;89.18;99209.61;103472;1300;23997;-29
2022/04/20 04:10:56;;;;;;;16.60;8.30;;;;;;;0.96;89.73;99214.15;103558;1302;23645;-25
2022/04/20 04:13:25;;;;;;;17.60;8.80;;;;;;;1.24;89.17;99214.63;103268;1301;331228;-29
2022/04/20 04:15:54;;;;;;;24.50;14.50;;;;;;;1.10;89.26;99218.29;103595;1300;25100;-25
2022/04/20 04:18:23;;;;;;;32.60;13.00;;;;;;;1.12;89.79;99216.95;103519;1300;22496;-27
2022/04/20 04:20:52;;;;;;;18.00;9.90;;;;;;;1.20;89.58;99217.89;103551;1300;23987;-24
2022/04/20 04:23:21;;;;;;;11.40;6.20;;;;;;;1.16;89.87;99217.92;103591;1300;23796;-28
2022/04/20 04:25:50;;;;;;;18.80;11.10;;;;;;;1.18;90.13;99218.98;103583;1300;24231;-23
2022/04/20 04:28:19;;;;;;;26.50;11.40;;;;;;;1.22;89.99;99215.33;103555;1302;24058;-30
2022/04/20 04:30:48;;;;;;;14.40;9.70;;;;;;;1.20;90.10;99216.66;103599;1302;25102;-30
2022/04/20 04:33:17;;;;;;;24.10;13.20;;;;;;;1.27;89.54;99212.31;103734;1300;24247;-26
2022/04/20 04:35:46;;;;;;;19.40;9.90;;;;;;;1.16;90.21;99209.71;103594;1300;22743;-26
2022/04/20 04:38:15;;;;;;;23.90;12.00;;;;;;;1.22;90.26;99205.24;103524;1300;23750;-27
2022/04/20 04:40:44;;;;;;;21.40;11.20;;;;;;;1.05;91.28;99207.16;103567;1300;24263;-25
2022/04/20 04:43:13;;;;;;;22.30;12.20;;;;;;;1.19;91.54;99205.40;103594;1302;24216;-29
2022/04/20 04:50:47;;;;;;;13.70;9.00;;;;;;;1.54;90.47;99196.77;103541;1300;25019;-25
2022/04/20 04:53:17;;;;;;;19.50;11.00;;;;;;;1.51;90.97;99196.91;103544;1298;24219;-31
2022/04/20 04:55:46;;;;;;;21.20;11.20;;;;;;;1.62;90.10;99194.98;103557;1300;22633;-26
2022/04/20 04:58:15;;;;;;;24.00;12.80;;;;;;;1.64;89.94;99192.52;103604;1300;24986;-29
2022/04/20 05:00:44;;;;;;;28.60;10.60;;;;;;;1.77;88.83;99189.36;103541;1300;23273;-29
2022/04/20 05:03:14;;;;;;;19.50;11.50;;;;;;;1.92;88.05;99189.49;103565;1300;24305;-26
2022/04/20 05:05:43;;;;;;;18.00;10.60;;;;;;;1.88;87.70;99188.79;103571;1302;24427;-28
2022/04/20 05:08:13;;;;;;;12.60;6.50;;;;;;;1.92;87.28;99188.65;103390;1300;22500;-25
2022/04/20 05:10:42;;;;;;;24.90;10.00;;;;;;;2.20;85.93;99185.71;103639;1302;24320;-26
2022/04/20 05:13:11;;;;;;;9.10;5.80;;;;;;;2.08;85.80;99183.58;103565;1302;22633;-29
2022/04/20 05:15:40;;;;;;;16.00;8.20;;;;;;;2.16;85.33;99182.44;103532;1300;23803;-29
2022/04/20 05:18:09;;;;;;;13.20;7.50;;;;;;;2.07;85.60;99178.13;103537;1300;23520;-28
2022/04/20 05:20:38;;;;;;;21.10;9.20;;;;;;;2.00;85.93;99172.14;103527;1300;24312;-28
2022/04/20 05:23:08;;;;;;;12.40;7.00;;;;;;;2.16;85.47;99173.95;103525;1300;23786;-25
2022/04/20 05:25:37;;;;;;;7.90;5.40;;;;;;;2.20;84.95;99172.61;103523;1300;24312;-25
2022/04/20 05:28:06;;;;;;;15.00;8.30;;;;;;;2.24;84.93;99175.32;103529;1301;22508;-25
2022/04/20 05:30:36;;;;;;;10.20;5.20;;;;;;;2.18;84.85;99173.05;103541;1302;23882;-28
2022/04/20 05:33:05;;;;;;;18.30;11.90;;;;;;;2.22;84.46;99169.66;103547;1302;22497;-29
2022/04/20 05:35:34;;;;;;;19.20;8.30;;;;;;;2.15;85.45;99169.07;103533;1300;25224;-31
2022/04/20 05:43:08;;;;;;;18.90;8.80;;;;;;;2.46;83.50;99169.08;103531;1301;25087;-28
2022/04/20 05:45:37;;;;;;;11.60;7.80;;;;;;;2.32;84.08;99171.50;103467;1300;22754;-27
2022/04/20 05:48:07;;;;;;;16.10;6.80;;;;;;;2.44;83.39;99172.45;103573;1302;25044;-25
2022/04/20 05:50:36;;;;;;;14.00;8.10;;;;;;;2.48;82.89;99172.54;103579;1302;22852;-29
2022/04/20 05:53:05;;;;;;;11.10;6.50;;;;;;;2.24;84.45;99168.92;103534;1300;24993;-28
2022/04/20 05:55:35;;;;;;;20.70;11.50;;;;;;;2.16;85.16;99164.58;103568;1300;24236;-23
2022/04/20 05:58:04;;;;;;;17.40;11.30;;;;;;;2.24;85.19;99161.29;103620;1300;25106;-28
2022/04/20 06:00:33;;;;;;;11.90;9.10;;;;;;;2.14;85.92;99160.02;103548;1302;24280;-25
2022/04/20 06:03:03;;;;;;;14.40;6.80;;;;;;;2.26;85.46;99157.77;103498;1300;24311;-28
2022/04/20 06:05:32;;;;;;;21.40;11.20;;;;;;;2.26;85.56;99156.15;103580;1300;22787;-25
2022/04/20 06:08:00;;;;;;;29.00;4.70;;;;;;;2.41;85.50;99147.44;103577;1300;24296;-30
2022/04/20 06:10:32;;;;;;;24.00;12.60;;;;;;;2.38;85.21;99149.37;103510;1301;22511;-28
2022/04/20 06:13:01;;;;;;;17.20;8.70;;;;;;;2.54;84.82;99149.55;103560;1299;22502;-28
2022/04/20 06:15:30;;;;;;;21.70;11.60;;;;;;;2.62;83.72;99149.60;103600;1300;24241;-25
2022/04/20 06:17:59;;;;;;;12.80;7.30;;;;;;;2.69;83.73;99140.27;103530;1302;23740;-29
2022/04/20 06:20:28;;;;;;;29.40;9.20;;;;;;;2.85;82.62;99142.55;103451;1302;23788;-25
2022/04/20 06:22:57;;;;;;;17.80;6.60;;;;;;;2.67;83.47;99141.70;103501;1301;24192;-29
2022/04/20 06:25:26;;;;;;;10.00;7.00;;;;;;;2.93;83.06;99138.82;103648;1302;23786;-28
2022/04/20 06:27:55;;;;;;;21.60;11.50;;;;;;;2.99;82.07;99137.87;103539;1300;24245;-25
2022/04/20 06:30:24;;;;;;;19.50;12.10;;;;;;;3.07;80.90;99132.02;103498;1300;24312;-30
2022/04/20 06:32:52;;;;;;;21.70;13.20;;;;;;;3.02;81.47;99133.58;103550;1301;24335;-29
2022/04/20 06:35:21;;;;;;;15.30;9.80;;;;;;;3.16;80.85;99127.10;103584;1300;23802;-26
2022/04/20 06:37:50;;;;;;;15.20;12.30;;;;;;;3.15;81.36;99127.35;103538;1301;24285;-29
2022/04/20 06:40:20;;;;;;;20.60;9.60;;;;;;;2.92;82.13;99119.02;103536;1300;24242;-29
2022/04/20 06:42:48;;;;;;;24.20;13.00;;;;;;;3.19;81.76;99115.79;103533;1300;22506;-25
2022/04/20 06:45:17;;;;;;;16.20;9.20;;;;;;;3.51;80.52;99107.02;103534;1300;24305;-28
2022/04/20 06:47:46;;;;;;;16.00;9.10;;;;;;;3.54;79.50;99107.75;103583;1300;23763;-29
2022/04/20 06:50:16;;;;;;;11.90;8.70;;;;;;;3.76;78.62;99104.23;103573;1300;22518;-27
2022/04/20 07:00:25;;;;;;;94.00;25.50;;;;;;;4.01;77.22;99100.04;103639;1300;22626;-29
2022/04/20 07:02:59;;;;;;;47.40;17.20;;;;;;;3.88;77.40;99094.52;103499;1302;23646;-30
2022/04/20 07:05:28;;;;;;;18.90;11.90;;;;;;;4.10;77.07;99095.34;103580;1300;24340;-28
2022/04/20 07:07:57;;;;;;;23.40;12.40;;;;;;;4.06;76.57;99094.86;103577;1300;24225;-30
2022/04/20 07:10:26;;;;;;;16.80;9.80;;;;;;;3.74;78.31;99097.55;103546;1300;22518;-25
2022/04/20 07:12:55;;;;;;;17.10;12.30;;;;;;;3.97;77.88;99096.21;103576;1301;22630;-28
2022/04/20 07:15:25;;;;;;;21.40;11.20;;;;;;;4.37;76.04;99097.31;103511;1300;23919;-25
2022/04/20 07:17:54;;;;;;;22.30;11.90;;;;;;;4.21;76.76;99099.35;103508;1300;24229;-30
2022/04/20 07:20:23;;;;;;;26.20;12.60;;;;;;;4.11;76.97;99096.30;103566;1300;23791;-28
2022/04/20 07:22:53;;;;;;;30.10;13.30;;;;;;;4.27;76.49;99093.05;103496;1302;24214;-29
2022/04/20 07:25:23;;;;;;;29.10;13.70;;;;;;;4.46;76.25;99094.39;103454;1301;25353;-29
2022/04/20 07:27:52;;;;;;;48.40;20.20;;;;;;;4.32;76.17;99093.41;103542;1300;23814;-28
2022/04/20 07:30:21;;;;;;;20.10;10.80;;;;;;;4.30;76.53;99089.52;103504;1300;25104;-25
2022/04/20 07:32:50;;;;;;;33.00;12.90;;;;;;;4.30;76.19;99092.02;103516;1302;25041;-25
2022/04/20 07:35:19;;;;;;;45.40;12.80;;;;;;;4.50;76.34;99093.20;103488;1300;24358;-28
2022/04/20 07:37:48;;;;;;;14.90;7.70;;;;;;;4.53;75.96;99085.05;103589;1300;25109;-25
2022/04/20 07:40:17;;;;;;;15.60;9.70;;;;;;;5.09;73.79;99081.30;103602;1300;22774;-25
2022/04/20 07:42:46;;;;;;;22.80;11.90;;;;;;;5.07;72.89;99078.48;103551;1300;22735;-29
2022/04/20 07:45:15;;;;;;;18.40;11.00;;;;;;;4.78;74.13;99080.21;103613;1301;23039;-28
2022/04/20 07:47:44;;;;;;;13.20;7.90;;;;;;;5.00;73.57;99076.39;103609;1300;23448;-29
2022/04/20 07:52:48;;;;;;;25.90;12.70;;;;;;;4.81;74.84;99078.37;103615;1301;24458;-30
2022/04/20 07:55:20;;;;;;;21.50;11.50;;;;;;;4.81;74.52;99078.02;103540;1300;24195;-28
2022/04/20 07:57:51;;;;;;;17.10;10.50;;;;;;;4.88;74.30;99077.05;103593;1300;23612;-25
2022/04/20 08:00:20;;;;;;;16.00;9.00;;;;;;;4.89;74.33;99079.58;103577;1300;22496;-30
2022/04/20 08:02:49;;;;;;;19.20;9.30;;;;;;;4.91;74.32;99083.82;103637;1300;24330;-30
2022/04/20 08:05:19;;;;;;;25.30;11.00;;;;;;;4.98;74.52;99083.79;103456;1301;25134;-27
2022/04/20 08:07:48;;;;;;;14.30;8.20;;;;;;;4.83;75.43;99077.70;103557;1301;24313;-31
2022/04/20 08:10:17;;;;;;;12.40;5.20;;;;;;;5.10;74.61;99076.95;103595;1300;25134;-27
2022/04/20 08:12:46;;;;;;;15.50;9.60;;;;;;;5.07;75.26;99083.27;103560;1300;23610;-30
2022/04/20 08:15:15;;;;;;;20.30;10.60;;;;;;;5.03;75.41;99080.55;103555;1300;24111;-29
2022/04/20 08:17:44;;;;;;;11.70;7.30;;;;;;;4.67;76.97;99081.99;103482;1301;22509;-28
2022/04/20 08:20:14;;;;;;;13.10;8.90;;;;;;;4.69;78.70;99084.07;103552;1302;24254;-28
2022/04/20 08:22:43;;;;;;;15.40;10.50;;;;;;;4.64;79.55;99084.80;103571;1302;24248;-28
2022/04/20 08:25:13;;;;;;;23.20;10.00;;;;;;;4.52;80.85;99082.91;103629;1302;22493;-25
2022/04/20 08:27:42;;;;;;;19.30;9.50;;;;;;;4.70;80.29;99084.73;103626;1300;24216;-28
2022/04/20 08:30:11;;;;;;;21.10;15.20;;;;;;;4.47;82.00;99084.27;103547;1301;24189;-28
2022/04/20 08:32:41;;;;;;;9.60;7.90;;;;;;;4.74;81.22;99079.74;103605;1300;22629;-24
2022/04/20 08:35:10;;;;;;;11.60;7.70;;;;;;;4.44;82.79;99076.66;103537;1302;22515;-26
2022/04/20 08:37:39;;;;;;;21.70;10.20;;;;;;;4.42;84.12;99076.34;103642;1301;23943;-23
2022/04/20 08:40:09;;;;;;;31.80;11.60;;;;;;;4.38;84.89;99079.23;103562;1302;24370;-26
2022/04/20 08:42:38;;;;;;;13.10;10.20;;;;;;;4.30;85.83;99073.17;103546;1300;25040;-26
2022/04/20 08:45:08;;;;;;;6.40;5.20;;;;;;;4.63;84.53;99069.27;103484;1302;23528;-29
2022/04/20 08:47:38;;;;;;;8.60;6.10;;;;;;;4.18;86.87;99063.73;103461;1300;23631;-24
2022/04/20 08:50:09;;;;;;;7.60;5.30;;;;;;;4.08;88.09;99066.56;103541;1300;22558;-25
2022/04/20 08:52:38;;;;;;;15.70;7.60;;;;;;;4.10;89.00;99065.11;103564;1301;25014;-25
2022/04/20 08:55:10;;;;;;;18.40;11.00;;;;;;;4.35;89.03;99058.45;103571;1300;25012;-24
2022/04/20 08:57:40;;;;;;;26.40;8.40;;;;;;;4.10;89.77;99058.14;103557;1300;23787;-30
2022/04/20 09:00:11;;;;;;;14.80;10.30;;;;;;;4.46;89.01;99054.69;103570;1300;23590;-27
2022/04/20 09:02:40;;;;;;;18.00;9.90;;;;;;;4.28;89.66;99055.34;103576;1300;25361;-29
2022/04/20 09:05:09;;;;;;;22.30;12.80;;;;;;;4.46;89.28;99057.70;103545;1302;24253;-29
2022/04/20 09:07:38;;;;;;;29.80;15.70;;;;;;;4.56;89.99;99056.05;103561;1302;22775;-29
2022/04/20 09:10:08;;;;;;;19.80;10.30;;;;;;;4.23;91.61;99052.53;103629;1301;22502;-25
2022/04/20 09:12:42;;;;;;;6.60;5.30;;;;;;;4.28;92.36;99055.14;103511;1300;24304;-24
2022/04/20 09:15:14;;;;;;;20.70;13.50;;;;;;;4.52;92.67;99050.13;103576;1300;24984;-25
2022/04/20 09:17:45;;;;;;;17.50;12.00;;;;;;;4.38;93.08;99047.38;103474;1302;23628;-25
2022/04/20 09:20:17;;;;;;;23.30;10.00;;;;;;;4.61;93.24;99041.70;103605;1302;23899;-24
2022/04/20 09:22:53;;;;;;;43.20;16.00;;;;;;;4.85;91.94;99036.44;103632;1300;25141;-25
2022/04/20 09:25:25;;;;;;;40.50;21.50;;;;;;;4.88;90.47;99037.66;103531;1299;22513;-26
2022/04/20 09:27:55;;;;;;;17.50;11.90;;;;;;;4.87;90.88;99035.39;103559;1302;23897;-27
2022/04/20 09:30:24;;;;;;;25.90;14.00;;;;;;;4.94;89.68;99033.45;103554;1300;24234;-26
2022/04/20 09:32:54;;;;;;;14.40;8.80;;;;;;;4.56;92.04;99031.23;103622;1299;24196;-28
2022/04/20 09:35:24;;;;;;;15.80;9.30;;;;;;;4.73;91.95;99025.98;103530;1300;25344;-27
2022/04/20 09:37:59;;;;;;;20.20;9.40;;;;;;;4.56;92.36;99030.91;103570;1301;24222;-25
2022/04/20 09:40:32;;;;;;;12.70;11.50;;;;;;;4.51;93.53;99030.38;103524;1300;22514;-29
2022/04/20 09:43:03;;;;;;;25.60;16.60;;;;;;;4.88;93.98;99025.17;103568;1302;23863;-29
2022/04/20 09:45:33;;;;;;;66.90;32.20;;;;;;;4.73;93.82;99022.11;103587;1300;22901;-29
2022/04/20 09:50:43;;;;;;;6.60;5.90;;;;;;;4.87;93.06;99020.95;103470;1300;23830;-26
2022/04/20 09:53:14;;;;;;;10.50;7.70;;;;;;;4.92;94.14;99023.55;103501;1301;23533;-24
2022/04/20 09:55:43;;;;;;;26.10;11.10;;;;;;;5.11;93.09;99022.51;103536;1300;25121;-25
2022/04/20 09:58:18;;;;;;;9.40;7.00;;;;;;;5.04;93.11;99023.09;103551;1300;22518;-26
2022/04/20 10:00:47;;;;;;;5.20;3.90;;;;;;;4.81;95.26;99014.50;103471;1300;22747;-31
2022/04/20 10:03:24;;;;;;;8.00;6.80;;;;;;;4.79;94.87;99012.20;103526;1300;24324;-29
2022/04/20 10:05:53;;;;;;;8.20;5.00;;;;;;;4.82;94.59;99017.55;103537;1300;24027;-25
2022/04/20 10:08:23;;;;;;;9.20;6.90;;;;;;;4.79;96.35;99015.63;103539;1300;25381;-30
2022/04/20 10:10:53;;;;;;;7.60;5.80;;;;;;;4.77;96.39;99007.15;103563;1302;24310;-25
2022/04/20 10:13:22;;;;;;;28.70;5.60;;;;;;;4.85;94.93;99007.80;103512;1302;24256;-31
2022/04/20 10:18:27;;;;;;;6.20;5.20;;;;;;;4.99;94.39;99011.42;103529;1300;22610;-24
2022/04/20 10:20:58;;;;;;;12.30;5.00;;;;;;;5.32;92.59;99003.87;103548;1300;23595;-29
2022/04/20 10:23:29;;;;;;;7.40;4.90;;;;;;;5.26;90.92;99003.42;103506;1300;25335;-30
2022/04/20 10:25:59;;;;;;;10.30;4.80;;;;;;;5.06;91.78;99002.49;103551;1300;25879;-25
2022/04/20 10:28:30;;;;;;;6.00;3.70;;;;;;;5.18;91.13;98997.39;103586;1300;25018;-25
2022/04/20 10:31:19;;;;;;;9.40;5.30;;;;;;;5.07;92.28;98999.69;103551;1300;23814;-26
2022/04/20 10:33:48;;;;;;;14.80;6.80;;;;;;;5.40;89.86;98997.64;103408;1302;22781;-29
2022/04/20 10:36:19;;;;;;;10.10;4.90;;;;;;;5.33;90.53;98994.60;103473;1302;24237;-27
2022/04/20 10:38:48;;;;;;;27.00;10.70;;;;;;;5.33;90.56;98996.57;103587;1300;26138;-29
2022/04/20 10:41:18;;;;;;;13.80;9.70;;;;;;;5.34;91.27;98992.27;103553;1300;23531;-29
2022/04/20 10:44:04;;;;;;;26.60;9.00;;;;;;;5.07;91.91;98989.91;103632;1300;22717;-23
2022/04/20 10:46:34;;;;;;;11.50;7.30;;;;;;;5.19;91.95;98995.57;103484;1302;22514;-25
2022/04/20 10:49:15;;;;;;;8.50;6.80;;;;;;;5.13;90.97;98998.34;103572;1300;23611;-25
2022/04/20 10:51:46;;;;;;;6.30;4.90;;;;;;;5.03;91.49;98994.79;103495;1301;22511;-29
2022/04/20 10:54:22;;;;;;;7.90;5.30;;;;;;;4.92;93.67;98994.95;103522;1300;22603;-29
2022/04/20 10:57:10;;;;;;;4.60;1.80;;;;;;;4.67;93.33;98995.45;103498;1300;24346;-25
2022/04/20 10:59:40;;;;;;;8.70;6.50;;;;;;;4.85;94.65;98995.39;103567;1300;24253;-31
2022/04/20 11:02:11;;;;;;;11.70;6.30;;;;;;;4.93;93.21;98994.86;103512;1300;25035;-30
2022/04/20 11:04:42;;;;;;;5.90;5.10;;;;;;;4.84;94.71;98993.59;103585;1300;24219;-25
2022/04/20 11:07:14;;;;;;;4.40;3.70;;;;;;;4.80;95.21;98996.64;103603;1300;24156;-31
2022/04/20 11:09:45;;;;;;;5.20;4.40;;;;;;;5.19;94.00;98997.16;103441;1300;24219;-27
2022/04/20 11:19:52;;;;;;;5.10;4.30;;;;;;;4.89;94.18;98999.57;103593;1300;24274;-29
2022/04/20 11:22:22;;;;;;;12.90;4.90;;;;;;;5.01;94.18;99005.38;103557;1300;22815;-29
2022/04/20 11:25:06;;;;;;;6.50;3.50;;;;;;;4.87;94.50;99003.56;103583;1300;25239;-27
2022/04/20 11:27:35;;;;;;;6.10;4.50;;;;;;;5.16;94.56;99000.63;103555;1300;24290;-29
2022/04/20 11:30:05;;;;;;;6.80;5.80;;;;;;;5.29;93.11;98997.20;103520;1300;22508;-29
2022/04/20 11:32:35;;;;;;;8.40;5.90;;;;;;;5.30;92.79;98996.76;103422;1302;23530;-27
2022/04/20 11:35:06;;;;;;;3.30;2.90;;;;;;;5.21;93.72;98998.11;103516;1300;24212;-25
2022/04/20 11:37:37;;;;;;;5.00;3.50;;;;;;;5.45;92.24;98991.73;103504;1300;23812;-25
2022/04/20 11:40:11;;;;;;;7.00;3.50;;;;;;;5.25;92.97;98994.27;103509;1300;24218;-28
2022/04/20 11:42:41;;;;;;;6.40;4.40;;;;;;;5.36;93.21;98997.02;103539;1300;24296;-25
2022/04/20 11:45:11;;;;;;;23.10;7.90;;;;;;;5.60;91.62;98998.02;103562;1300;25354;-25
2022/04/20 11:47:40;;;;;;;7.40;3.80;;;;;;;5.83;90.15;98995.23;103542;1300;24216;-28
2022/04/20 11:50:09;;;;;;;21.70;7.50;;;;;;;5.31;91.16;98999.30;103499;1300;24246;-29
2022/04/20 11:52:38;;;;;;;16.20;6.30;;;;;;;5.35;93.02;98996.77;103567;1300;23604;-25
2022/04/20 11:55:07;;;;;;;25.70;5.60;;;;;;;5.35;92.97;99002.83;103517;1300;23775;-31
2022/04/20 11:57:38;;;;;;;5.20;3.90;;;;;;;5.45;92.24;99004.97;103564;1300;25001;-28
2022/04/20 12:00:07;;;;;;;9.20;4.20;;;;;;;5.47;93.25;98996.40;103565;1300;25047;-28
2022/04/20 12:02:36;;;;;;;3.30;2.30;;;;;;;5.19;93.95;98990.14;103535;1300;22503;-29
2022/04/20 12:05:08;;;;;;;10.80;6.40;;;;;;;5.32;93.71;98988.63;103540;1300;24240;-25
2022/04/20 12:07:37;;;;;;;3.00;2.20;;;;;;;5.13;95.11;98988.42;103546;1300;23603;-29
2022/04/20 12:10:06;;;;;;;3.80;3.20;;;;;;;5.14;95.17;98985.92;103572;1300;23641;-25
2022/04/20 12:12:35;;;;;;;4.60;3.20;;;;;;;5.28;93.65;98988.66;103335;1300;328795;-25